createdAt,value
2024-01-05T00:00:21.406Z,-0.37
2024-01-05T00:02:47.650Z,-0.16
2024-01-05T00:05:13.800Z,-0.04
2024-01-05T00:07:39.980Z,0.08
2024-01-05T00:10:06.154Z,0.26
2024-01-05T00:12:32.371Z,-0.86
2024-01-05T00:14:58.599Z,-1.83
2024-01-05T00:17:24.811Z,-1.11
2024-01-05T00:19:51.004Z,-0.34
2024-01-05T00:22:17.163Z,-0.47
2024-01-05T00:24:43.326Z,-0.20
2024-01-05T00:27:09.533Z,-0.30
2024-01-05T00:29:35.742Z,-0.25
2024-01-05T00:32:01.949Z,-0.46
2024-01-05T00:34:28.222Z,-0.32
2024-01-05T00:36:54.458Z,-0.22
2024-01-05T00:39:20.662Z,-0.26
2024-01-05T00:41:46.895Z,-1.16
2024-01-05T00:44:13.052Z,-0.35
2024-01-05T00:46:39.254Z,-0.39
2024-01-05T00:49:05.568Z,-0.62
2024-01-05T00:51:31.829Z,-1.08
2024-01-05T00:53:58.087Z,-0.88
2024-01-05T00:56:24.310Z,-0.80
2024-01-05T00:58:50.473Z,-0.91
2024-01-05T01:01:16.753Z,-0.63
2024-01-05T01:03:43.073Z,-0.37
2024-01-05T01:06:09.333Z,-0.46
2024-01-05T01:08:35.559Z,-0.15
2024-01-05T01:11:01.885Z,-0.08
2024-01-05T01:13:28.165Z,0.02
2024-01-05T01:15:54.315Z,-0.03
2024-01-05T01:18:20.629Z,0.12
2024-01-05T01:20:46.888Z,-0.11
2024-01-05T01:23:13.068Z,-0.43
2024-01-05T01:25:39.209Z,-0.25
2024-01-05T01:28:05.383Z,-0.05
2024-01-05T01:30:31.642Z,-0.05
2024-01-05T01:32:57.892Z,0.11
2024-01-05T01:35:24.119Z,0.01
2024-01-05T01:37:50.258Z,0.01
2024-01-05T01:40:16.431Z,-0.22
2024-01-05T01:42:42.629Z,-0.14
2024-01-05T01:45:08.920Z,0.21
2024-01-05T01:47:35.261Z,0.41
2024-01-05T01:50:01.581Z,0.28
2024-01-05T01:52:27.780Z,0.02
2024-01-05T01:54:53.968Z,-0.21
2024-01-05T01:57:20.355Z,0.05
2024-01-05T01:59:46.571Z,0.15
2024-01-05T02:02:12.733Z,-0.04
2024-01-05T02:04:39.135Z,-0.24
2024-01-05T02:07:05.366Z,-0.51
2024-01-05T02:09:31.524Z,-0.77
2024-01-05T02:11:57.758Z,-0.83
2024-01-05T02:14:23.937Z,-0.90
2024-01-05T02:16:50.104Z,-0.93
2024-01-05T02:19:16.439Z,-1.11
2024-01-05T02:21:42.786Z,-0.85
2024-01-05T02:24:09.004Z,-0.93
2024-01-05T02:26:35.239Z,-0.78
2024-01-05T02:29:01.480Z,-0.86
2024-01-05T02:31:27.691Z,-0.83
2024-01-05T02:33:53.906Z,-0.54
2024-01-05T02:36:20.161Z,-0.81
2024-01-05T02:38:46.341Z,-0.68
2024-01-05T02:41:12.515Z,-0.32
2024-01-05T02:43:38.701Z,0.19
2024-01-05T02:46:04.893Z,0.07
2024-01-05T02:48:31.189Z,0.67
2024-01-05T02:50:57.601Z,0.44
2024-01-05T02:53:23.834Z,-0.22
2024-01-05T02:55:50.110Z,-0.24
2024-01-05T02:58:16.256Z,-0.40
2024-01-05T03:00:42.498Z,-0.28
2024-01-05T03:03:08.858Z,-0.17
2024-01-05T03:05:35.150Z,0.00
2024-01-05T03:08:01.368Z,-0.47
2024-01-05T03:10:27.565Z,-0.13
2024-01-05T03:12:53.753Z,0.20
2024-01-05T03:15:19.939Z,0.11
2024-01-05T03:17:46.237Z,0.13
2024-01-05T03:20:12.411Z,0.18
2024-01-05T03:22:38.567Z,-0.04
2024-01-05T03:25:04.817Z,0.17
2024-01-05T03:27:31.012Z,0.44
2024-01-05T03:29:57.222Z,0.45
2024-01-05T03:32:23.464Z,0.42
2024-01-05T03:34:49.694Z,0.59
2024-01-05T03:37:15.883Z,0.57
2024-01-05T03:39:42.071Z,0.37
2024-01-05T03:42:08.299Z,0.43
2024-01-05T03:44:34.490Z,0.28
2024-01-05T03:47:00.674Z,0.44
2024-01-05T03:49:26.938Z,0.43
2024-01-05T03:51:53.165Z,0.39
2024-01-05T03:54:19.361Z,0.42
2024-01-05T03:56:45.771Z,0.43
2024-01-05T03:59:11.994Z,0.37
2024-01-05T04:01:38.165Z,0.33
2024-01-05T04:04:04.570Z,0.48
2024-01-05T04:06:30.903Z,0.17
2024-01-05T04:08:57.190Z,0.20
2024-01-05T04:11:23.427Z,0.33
2024-01-05T04:13:49.588Z,0.47
2024-01-05T04:16:15.753Z,0.59
2024-01-05T04:18:42.021Z,0.43
2024-01-05T04:21:08.291Z,0.45
2024-01-05T04:23:34.517Z,0.25
2024-01-05T04:26:00.707Z,0.42
2024-01-05T04:28:26.851Z,0.56
2024-01-05T04:30:53.214Z,0.24
2024-01-05T04:33:19.648Z,0.13
2024-01-05T04:35:45.993Z,0.41
2024-01-05T04:38:12.156Z,0.88
2024-01-05T04:40:38.326Z,0.93
2024-01-05T04:43:04.500Z,1.00
2024-01-05T04:45:30.713Z,0.73
2024-01-05T04:47:57.105Z,0.71
2024-01-05T04:50:23.349Z,0.74
2024-01-05T04:52:49.495Z,0.91
2024-01-05T04:55:15.733Z,0.68
2024-01-05T04:57:43.734Z,0.54
2024-01-05T05:00:11.432Z,0.62
2024-01-05T05:02:37.668Z,0.96
2024-01-05T05:05:03.910Z,1.14
2024-01-05T05:07:30.097Z,1.09
2024-01-05T05:09:56.277Z,0.88
2024-01-05T05:12:22.477Z,0.90
2024-01-05T05:14:48.728Z,1.06
2024-01-05T05:17:14.929Z,1.13
2024-01-05T05:19:41.217Z,1.26
2024-01-05T05:22:07.445Z,1.25
2024-01-05T05:24:33.699Z,1.03
2024-01-05T05:26:59.956Z,1.08
2024-01-05T05:29:26.133Z,1.06
2024-01-05T05:31:52.413Z,1.07
2024-01-05T05:34:18.751Z,0.93
2024-01-05T05:36:44.960Z,0.62
2024-01-05T05:39:11.143Z,0.69
2024-01-05T05:41:37.319Z,0.66
2024-01-05T05:44:03.486Z,0.91
2024-01-05T05:46:29.634Z,1.05
2024-01-05T05:48:56.013Z,1.02
2024-01-05T05:51:22.341Z,1.01
2024-01-05T05:53:48.508Z,0.95
2024-01-05T05:56:14.688Z,1.16
2024-01-05T05:58:40.866Z,0.93
2024-01-05T06:01:07.207Z,0.91
2024-01-05T06:03:33.460Z,1.11
2024-01-05T06:05:59.789Z,1.10
2024-01-05T06:08:26.041Z,1.05
2024-01-05T06:10:52.206Z,1.04
2024-01-05T06:13:18.356Z,1.13
2024-01-05T06:15:44.560Z,1.13
2024-01-05T06:18:10.924Z,1.41
2024-01-05T06:20:37.179Z,1.61
2024-01-05T06:23:03.407Z,1.51
2024-01-05T06:25:29.586Z,1.33
2024-01-05T06:27:55.773Z,1.22
2024-01-05T06:30:22.046Z,1.16
2024-01-05T06:32:48.328Z,1.10
2024-01-05T06:35:14.572Z,1.25
2024-01-05T06:37:40.779Z,1.54
2024-01-05T06:40:06.948Z,1.34
2024-01-05T06:42:33.167Z,1.27
2024-01-05T06:44:59.495Z,1.16
2024-01-05T06:47:25.671Z,1.22
2024-01-05T06:49:51.957Z,1.22
2024-01-05T06:52:18.215Z,1.23
2024-01-05T06:54:44.376Z,1.16
2024-01-05T06:57:10.564Z,1.14
2024-01-05T06:59:36.737Z,0.99
2024-01-05T07:02:02.935Z,1.06
2024-01-05T07:04:29.107Z,0.86
2024-01-05T07:06:55.273Z,0.84
2024-01-05T07:09:21.497Z,0.69
2024-01-05T07:11:47.698Z,0.85
2024-01-05T07:14:13.864Z,0.90
2024-01-05T07:16:40.030Z,1.01
2024-01-05T07:19:06.410Z,1.17
2024-01-05T07:21:32.805Z,0.97
2024-01-05T07:23:59.053Z,1.09
2024-01-05T07:26:25.230Z,1.24
2024-01-05T07:28:51.411Z,1.28
2024-01-05T07:31:17.639Z,1.38
2024-01-05T07:33:43.904Z,1.45
2024-01-05T07:36:10.167Z,1.37
2024-01-05T07:38:36.419Z,1.14
2024-01-05T07:41:02.635Z,1.10
2024-01-05T07:43:28.804Z,1.01
2024-01-05T07:45:54.999Z,0.95
2024-01-05T07:48:21.235Z,1.04
2024-01-05T07:50:47.501Z,1.04
2024-01-05T07:53:13.664Z,1.24
2024-01-05T07:55:39.823Z,1.24
2024-01-05T07:58:05.994Z,1.06
2024-01-05T08:00:32.163Z,1.05
2024-01-05T08:02:58.437Z,1.08
2024-01-05T08:05:24.684Z,1.17
2024-01-05T08:07:51.018Z,1.09
2024-01-05T08:10:17.183Z,1.08
2024-01-05T08:12:43.433Z,1.58
2024-01-05T08:15:09.637Z,1.61
2024-01-05T08:17:35.893Z,1.59
2024-01-05T08:20:02.227Z,1.66
2024-01-05T08:22:28.439Z,2.16
2024-01-05T08:24:54.665Z,2.51
2024-01-05T08:27:20.840Z,2.68
2024-01-05T08:29:47.015Z,2.17
2024-01-05T08:32:13.168Z,2.39
2024-01-05T08:34:39.365Z,2.58
2024-01-05T08:37:05.561Z,2.67
2024-01-05T08:39:31.731Z,2.83
2024-01-05T08:41:57.990Z,2.83
2024-01-05T08:44:24.242Z,2.98
2024-01-05T08:46:50.437Z,3.09
2024-01-05T08:49:16.750Z,3.25
2024-01-05T08:51:43.017Z,3.29
2024-01-05T08:54:09.231Z,3.10
2024-01-05T08:56:35.445Z,3.16
2024-01-05T08:59:01.612Z,3.39
2024-01-05T09:01:27.961Z,3.38
2024-01-05T09:03:54.239Z,3.51
2024-01-05T09:06:20.460Z,3.46
2024-01-05T09:08:46.622Z,3.54
2024-01-05T09:11:12.811Z,3.55
2024-01-05T09:13:39.548Z,3.44
2024-01-05T09:16:05.837Z,3.53
2024-01-05T09:18:32.108Z,3.52
2024-01-05T09:20:58.383Z,3.52
2024-01-05T09:23:24.565Z,3.63
2024-01-05T09:25:50.737Z,3.52
2024-01-05T09:28:16.888Z,3.47
2024-01-05T09:33:09.300Z,3.63
2024-01-05T09:35:35.547Z,3.71
2024-01-05T09:38:01.712Z,3.66
2024-01-05T09:40:27.879Z,3.66
2024-01-05T09:42:54.082Z,3.78
2024-01-05T09:45:20.390Z,3.55
2024-01-05T09:47:46.599Z,3.57
2024-01-05T09:50:13.028Z,3.56
2024-01-05T09:52:39.294Z,3.15
2024-01-05T09:55:05.475Z,3.41
2024-01-05T09:57:31.671Z,3.64
2024-01-05T09:59:57.905Z,3.52
2024-01-05T10:02:24.095Z,2.73
2024-01-05T10:04:50.234Z,2.88
2024-01-05T10:07:16.414Z,3.21
2024-01-05T10:09:42.643Z,3.22
2024-01-05T10:12:08.997Z,3.40
2024-01-05T10:14:35.230Z,3.82
2024-01-05T10:17:01.381Z,3.58
2024-01-05T10:19:27.680Z,3.75
2024-01-05T10:21:53.914Z,3.97
2024-01-05T10:24:22.708Z,4.07
2024-01-05T10:26:50.101Z,3.49
2024-01-05T10:29:16.262Z,3.52
2024-01-05T10:31:42.521Z,3.68
2024-01-05T10:34:08.857Z,3.84
2024-01-05T10:36:35.157Z,3.45
2024-01-05T10:39:01.379Z,4.25
2024-01-05T10:41:27.606Z,4.33
2024-01-05T10:43:53.785Z,4.70
2024-01-05T10:46:19.973Z,4.81
2024-01-05T10:48:46.267Z,4.51
2024-01-05T10:51:12.505Z,4.08
2024-01-05T10:53:38.886Z,4.00
2024-01-05T10:56:05.353Z,3.52
2024-01-05T10:58:31.521Z,3.84
2024-01-05T11:00:57.778Z,3.74
2024-01-05T11:03:24.064Z,3.73
2024-01-05T11:05:50.274Z,3.96
2024-01-05T11:08:16.441Z,3.80
2024-01-05T11:10:42.619Z,3.81
2024-01-05T11:13:08.791Z,4.53
2024-01-05T11:15:34.989Z,4.91
2024-01-05T11:18:01.362Z,5.08
2024-01-05T11:20:27.658Z,5.17
2024-01-05T11:22:53.827Z,5.21
2024-01-05T11:25:20.008Z,5.28
2024-01-05T11:27:46.244Z,5.20
2024-01-05T11:30:12.480Z,5.28
2024-01-05T11:32:38.736Z,5.15
2024-01-05T11:35:04.967Z,4.74
2024-01-05T11:37:31.136Z,4.40
2024-01-05T11:39:57.288Z,4.38
2024-01-05T11:42:23.467Z,4.40
2024-01-05T11:44:49.697Z,4.34
2024-01-05T11:47:15.856Z,4.62
2024-01-05T11:49:42.138Z,5.14
2024-01-05T11:52:08.331Z,5.35
2024-01-05T11:54:34.528Z,5.28
2024-01-05T11:57:00.733Z,5.01
2024-01-05T11:59:26.919Z,5.05
2024-01-05T12:01:53.075Z,4.95
2024-01-05T12:04:19.297Z,5.17
2024-01-05T12:06:45.581Z,5.04
2024-01-05T12:09:11.815Z,4.86
2024-01-05T12:11:37.992Z,4.14
2024-01-05T12:14:04.156Z,4.27
2024-01-05T12:16:30.328Z,4.13
2024-01-05T12:18:56.674Z,4.30
2024-01-05T12:21:23.138Z,3.29
2024-01-05T12:23:49.359Z,2.74
2024-01-05T12:26:15.532Z,2.93
2024-01-05T12:28:41.698Z,2.91
2024-01-05T12:31:07.978Z,2.80
2024-01-05T12:33:34.383Z,2.70
2024-01-05T12:36:00.624Z,3.20
2024-01-05T12:38:26.827Z,3.47
2024-01-05T12:40:52.990Z,3.55
2024-01-05T12:43:19.142Z,2.76
2024-01-05T12:45:45.365Z,3.02
2024-01-05T12:48:12.009Z,1.88
2024-01-05T12:50:38.288Z,1.59
2024-01-05T12:53:04.451Z,0.77
2024-01-05T12:55:30.627Z,1.33
2024-01-05T12:57:56.798Z,1.26
2024-01-05T13:00:23.016Z,1.49
2024-01-05T13:02:49.186Z,1.84
2024-01-05T13:05:15.358Z,1.77
2024-01-05T13:07:41.515Z,1.63
2024-01-05T13:10:07.678Z,1.12
2024-01-05T13:12:33.921Z,1.09
2024-01-05T13:15:00.191Z,1.25
2024-01-05T13:17:26.557Z,0.58
2024-01-05T13:19:52.854Z,0.31
2024-01-05T13:22:19.032Z,-0.05
2024-01-05T13:24:46.994Z,0.01
2024-01-05T13:27:13.519Z,-0.29
2024-01-05T13:29:39.740Z,-0.04
2024-01-05T13:32:06.123Z,0.09
2024-01-05T13:34:32.485Z,0.66
2024-01-05T13:36:58.680Z,0.44
2024-01-05T13:39:24.850Z,0.93
2024-01-05T13:41:51.005Z,1.48
2024-01-05T13:44:17.170Z,1.22
2024-01-05T13:46:43.343Z,0.94
2024-01-05T13:49:09.608Z,1.39
2024-01-05T13:51:35.838Z,2.15
2024-01-05T13:54:02.166Z,2.02
2024-01-05T13:56:28.401Z,2.06
2024-01-05T13:58:54.590Z,2.09
2024-01-05T14:01:20.805Z,2.10
2024-01-05T14:03:46.992Z,2.57
2024-01-05T14:06:13.828Z,2.26
2024-01-05T14:08:40.112Z,2.40
2024-01-05T14:11:06.301Z,2.31
2024-01-05T14:13:32.459Z,2.30
2024-01-05T14:15:58.625Z,2.40
2024-01-05T14:18:24.929Z,2.30
2024-01-05T14:20:51.163Z,2.59
2024-01-05T14:23:17.354Z,3.02
2024-01-05T14:25:43.575Z,3.55
2024-01-05T14:28:09.808Z,3.47
2024-01-05T14:30:36.080Z,3.63
2024-01-05T14:33:02.437Z,3.51
2024-01-05T14:35:28.650Z,3.56
2024-01-05T14:37:54.836Z,3.62
2024-01-05T14:40:21.012Z,3.63
2024-01-05T14:42:47.216Z,3.62
2024-01-05T14:45:13.492Z,3.58
2024-01-05T14:47:42.570Z,2.73
2024-01-05T14:50:09.092Z,1.85
2024-01-05T14:52:35.280Z,2.14
2024-01-05T14:55:01.502Z,2.33
2024-01-05T14:57:27.731Z,2.41
2024-01-05T14:59:53.923Z,2.76
2024-01-05T15:02:20.104Z,3.07
2024-01-05T15:04:46.332Z,2.96
2024-01-05T15:07:12.515Z,2.58
2024-01-05T15:09:39.976Z,2.58
2024-01-05T15:12:07.236Z,2.49
2024-01-05T15:14:33.424Z,2.43
2024-01-05T15:16:59.587Z,2.61
2024-01-05T15:19:25.822Z,2.56
2024-01-05T15:21:52.160Z,2.84
2024-01-05T15:24:18.444Z,2.88
2024-01-05T15:26:44.629Z,2.75
2024-01-05T15:29:10.831Z,2.73
2024-01-05T15:31:37.089Z,1.55
2024-01-05T15:34:03.424Z,0.80
2024-01-05T15:36:29.734Z,0.26
2024-01-05T15:38:55.900Z,0.14
2024-01-05T15:41:22.078Z,-0.03
2024-01-05T15:43:48.891Z,0.33
2024-01-05T15:46:15.148Z,-0.57
2024-01-05T15:48:41.433Z,-0.17
2024-01-05T15:51:07.737Z,0.00
2024-01-05T15:53:33.952Z,0.12
2024-01-05T15:56:00.173Z,0.07
2024-01-05T15:58:26.470Z,0.25
2024-01-05T16:00:52.787Z,-0.07
2024-01-05T16:03:19.167Z,-0.37
2024-01-05T16:05:45.447Z,0.15
2024-01-05T16:08:11.672Z,0.02
2024-01-05T16:10:37.851Z,0.21
2024-01-05T16:13:04.013Z,0.07
2024-01-05T16:15:30.283Z,0.66
2024-01-05T16:17:56.470Z,0.67
2024-01-05T16:20:22.698Z,0.64
2024-01-05T16:22:48.884Z,0.97
2024-01-05T16:25:15.054Z,1.29
2024-01-05T16:27:41.259Z,1.53
2024-01-05T16:30:07.574Z,1.78
2024-01-05T16:32:33.939Z,1.94
2024-01-05T16:35:00.202Z,2.04
2024-01-05T16:37:26.457Z,2.24
2024-01-05T16:39:52.702Z,2.33
2024-01-05T16:42:18.974Z,2.25
2024-01-05T16:44:45.266Z,2.28
2024-01-05T16:47:11.427Z,1.92
2024-01-05T16:49:37.683Z,2.00
2024-01-05T16:52:03.967Z,2.06
2024-01-05T16:54:30.182Z,1.99
2024-01-05T16:56:56.378Z,1.86
2024-01-05T16:59:22.551Z,1.95
2024-01-05T17:01:48.740Z,1.92
2024-01-05T17:04:15.002Z,1.92
2024-01-05T17:06:41.267Z,2.22
2024-01-05T17:09:07.638Z,2.52
2024-01-05T17:11:33.825Z,2.44
2024-01-05T17:13:59.983Z,2.44
2024-01-05T17:16:26.133Z,2.68
2024-01-05T17:18:52.448Z,2.54
2024-01-05T17:21:18.683Z,2.48
2024-01-05T17:23:44.877Z,2.60
2024-01-05T17:26:11.037Z,2.59
2024-01-05T17:28:37.219Z,2.66
2024-01-05T17:31:03.460Z,2.63
2024-01-05T17:33:30.878Z,2.63
2024-01-05T17:35:57.073Z,2.65
2024-01-05T17:38:23.234Z,2.55
2024-01-05T17:40:49.389Z,2.31
2024-01-05T17:43:15.557Z,2.29
2024-01-05T17:45:41.761Z,2.25
2024-01-05T17:48:08.157Z,2.27
2024-01-05T17:50:34.447Z,2.32
2024-01-05T17:53:00.640Z,2.26
2024-01-05T17:55:26.864Z,2.16
2024-01-05T17:57:53.091Z,2.16
2024-01-05T18:00:19.423Z,2.00
2024-01-05T18:02:45.601Z,1.83
2024-01-05T18:05:11.755Z,1.92
2024-01-05T18:07:38.016Z,1.86
2024-01-05T18:10:04.237Z,1.95
2024-01-05T18:12:30.429Z,1.81
2024-01-05T18:14:56.600Z,1.98
2024-01-05T18:17:22.839Z,2.06
2024-01-05T18:19:49.188Z,2.03
2024-01-05T18:22:15.414Z,2.05
2024-01-05T18:24:41.687Z,2.06
2024-01-05T18:27:07.946Z,2.01
2024-01-05T18:29:34.153Z,1.96
2024-01-05T18:32:00.456Z,1.98
2024-01-05T18:34:27.513Z,2.01
2024-01-05T18:36:54.175Z,2.02
2024-01-05T18:39:20.715Z,2.02
2024-01-05T18:41:46.911Z,1.95
2024-01-05T18:44:13.070Z,2.01
2024-01-05T18:46:39.255Z,2.16
2024-01-05T18:49:05.479Z,2.15
2024-01-05T18:51:31.744Z,2.04
2024-01-05T18:53:57.938Z,2.18
2024-01-05T18:56:24.099Z,2.35
2024-01-05T18:58:50.267Z,2.43
2024-01-05T19:01:16.525Z,2.49
2024-01-05T19:03:42.865Z,2.49
2024-01-05T19:06:09.190Z,2.38
2024-01-05T19:08:35.380Z,2.25
2024-01-05T19:11:01.547Z,2.21
2024-01-05T19:13:27.703Z,2.06
2024-01-05T19:15:53.922Z,2.07
2024-01-05T19:18:20.305Z,2.03
2024-01-05T19:20:46.629Z,2.21
2024-01-05T19:23:12.796Z,2.15
2024-01-05T19:25:38.949Z,2.16
2024-01-05T19:28:05.121Z,2.14
2024-01-05T19:30:31.352Z,2.23
2024-01-05T19:32:57.559Z,2.24
2024-01-05T19:35:23.758Z,2.14
2024-01-05T19:37:49.913Z,1.91
2024-01-05T19:40:16.186Z,1.95
2024-01-05T19:42:42.503Z,1.99
2024-01-05T19:45:08.701Z,1.88
2024-01-05T19:47:34.928Z,2.00
2024-01-05T19:50:01.152Z,1.97
2024-01-05T19:52:27.360Z,1.90
2024-01-05T19:54:53.572Z,1.97
2024-01-05T19:57:19.796Z,1.91
2024-01-05T19:59:45.977Z,2.05
2024-01-05T20:02:12.134Z,2.01
2024-01-05T20:04:38.383Z,1.95
2024-01-05T20:07:04.762Z,1.81
2024-01-05T20:09:31.089Z,1.99
2024-01-05T20:11:57.361Z,1.94
2024-01-05T20:14:23.562Z,1.90
2024-01-05T20:16:49.838Z,1.98
2024-01-05T20:19:16.078Z,2.14
2024-01-05T20:21:42.455Z,2.05
2024-01-05T20:24:08.675Z,1.98
2024-01-05T20:26:34.847Z,2.10
2024-01-05T20:29:01.022Z,2.29
2024-01-05T20:31:27.361Z,2.20
2024-01-05T20:33:53.792Z,2.22
2024-01-05T20:36:20.138Z,2.21
2024-01-05T20:38:46.402Z,2.30
2024-01-05T20:41:12.617Z,2.25
2024-01-05T20:43:38.784Z,2.19
2024-01-05T20:46:04.944Z,2.27
2024-01-05T20:48:31.191Z,2.35
2024-01-05T20:50:57.505Z,2.44
2024-01-05T20:53:23.668Z,2.48
2024-01-05T20:55:49.837Z,2.51
2024-01-05T20:58:16.010Z,2.36
2024-01-05T21:00:42.290Z,2.50
2024-01-05T21:03:08.550Z,2.37
2024-01-05T21:05:34.758Z,2.35
2024-01-05T21:08:01.017Z,2.41
2024-01-05T21:10:27.171Z,2.28
2024-01-05T21:12:53.376Z,2.36
2024-01-05T21:15:19.549Z,2.39
2024-01-05T21:17:45.753Z,2.50
2024-01-05T21:20:11.965Z,2.58
2024-01-05T21:22:38.134Z,2.61
2024-01-05T21:25:04.285Z,2.64
2024-01-05T21:27:30.570Z,2.68
2024-01-05T21:29:56.784Z,2.68
2024-01-05T21:32:25.513Z,2.72
2024-01-05T21:34:52.579Z,2.67
2024-01-05T21:37:18.759Z,2.73
2024-01-05T21:39:44.961Z,2.70
2024-01-05T21:42:11.219Z,2.70
2024-01-05T21:44:37.433Z,2.78
2024-01-05T21:47:03.606Z,2.74
2024-01-05T21:49:30.042Z,2.60
2024-01-05T21:51:56.461Z,2.34
2024-01-05T21:54:22.690Z,2.32
2024-01-05T21:56:49.517Z,2.42
2024-01-05T21:59:15.680Z,2.41
2024-01-05T22:01:41.890Z,2.72
2024-01-05T22:04:08.285Z,2.65
2024-01-05T22:06:34.664Z,2.79
2024-01-05T22:09:00.924Z,2.35
2024-01-05T22:11:27.145Z,2.08
2024-01-05T22:13:53.312Z,2.08
2024-01-05T22:16:19.477Z,1.92
2024-01-05T22:18:45.780Z,1.80
2024-01-05T22:21:12.016Z,1.96
2024-01-05T22:23:41.336Z,2.10
2024-01-05T22:26:07.917Z,2.01
2024-01-05T22:28:34.075Z,1.66
2024-01-05T22:31:00.341Z,1.64
2024-01-05T22:33:26.747Z,1.60
2024-01-05T22:35:56.243Z,2.00
2024-01-05T22:38:26.554Z,1.90
2024-01-05T22:40:53.468Z,2.03
2024-01-05T22:43:19.670Z,2.19
2024-01-05T22:45:45.860Z,2.44
2024-01-05T22:48:12.214Z,2.25
2024-01-05T22:50:38.449Z,1.70
2024-01-05T22:53:04.611Z,1.03
2024-01-05T22:55:30.777Z,1.00
2024-01-05T22:57:56.944Z,1.19
2024-01-05T23:00:23.169Z,1.46
2024-01-05T23:02:49.342Z,1.50
2024-01-05T23:05:15.556Z,1.83
2024-01-05T23:07:41.840Z,1.77
2024-01-05T23:10:08.071Z,1.81
2024-01-05T23:12:34.270Z,1.98
2024-01-05T23:15:00.564Z,2.09
2024-01-05T23:17:26.774Z,2.12
2024-01-05T23:19:53.253Z,2.16
2024-01-05T23:22:19.624Z,2.22
2024-01-05T23:24:45.862Z,2.28
2024-01-05T23:27:12.074Z,2.23
2024-01-05T23:29:38.277Z,2.25
2024-01-05T23:32:04.444Z,2.30
2024-01-05T23:34:30.856Z,2.38
2024-01-05T23:36:57.203Z,2.16
2024-01-05T23:39:23.417Z,2.25
2024-01-05T23:41:49.605Z,1.97
2024-01-05T23:44:15.795Z,1.80
2024-01-05T23:46:41.978Z,2.05
2024-01-05T23:49:08.214Z,1.75
2024-01-05T23:51:34.520Z,1.99
2024-01-05T23:54:00.742Z,1.83
2024-01-05T23:56:26.926Z,1.78
2024-01-05T23:58:53.090Z,1.96
